sensor_id;sensor_type;location;lat;lon;timestamp;temperature;humidity
13817;DHT22;6979;52.116;5.286;2023-04-21T00:01:51;14.40;98.90
13817;DHT22;6979;52.116;5.286;2023-04-21T00:04:19;14.40;98.90
13817;DHT22;6979;52.116;5.286;2023-04-21T00:06:47;14.30;99.00
13817;DHT22;6979;52.116;5.286;2023-04-21T00:09:15;14.40;99.20
13817;DHT22;6979;52.116;5.286;2023-04-21T00:11:42;14.40;99.30
13817;DHT22;6979;52.116;5.286;2023-04-21T00:14:09;14.30;99.50
13817;DHT22;6979;52.116;5.286;2023-04-21T00:16:36;14.30;99.60
13817;DHT22;6979;52.116;5.286;2023-04-21T00:19:03;14.30;99.70
13817;DHT22;6979;52.116;5.286;2023-04-21T00:21:31;14.30;99.70
13817;DHT22;6979;52.116;5.286;2023-04-21T00:23:59;14.30;99.90
13817;DHT22;6979;52.116;5.286;2023-04-21T00:26:26;14.30;99.90
13817;DHT22;6979;52.116;5.286;2023-04-21T00:28:53;14.30;99.90
13817;DHT22;6979;52.116;5.286;2023-04-21T00:31:20;14.30;99.90
13817;DHT22;6979;52.116;5.286;2023-04-21T00:33:46;14.20;99.90
13817;DHT22;6979;52.116;5.286;2023-04-21T00:36:13;14.20;99.90
13817;DHT22;6979;52.116;5.286;2023-04-21T00:38:40;14.20;99.90
13817;DHT22;6979;52.116;5.286;2023-04-21T00:41:09;14.20;99.90
13817;DHT22;6979;52.116;5.286;2023-04-21T00:43:37;14.10;99.90
13817;DHT22;6979;52.116;5.286;2023-04-21T00:46:04;14.10;99.90
13817;DHT22;6979;52.116;5.286;2023-04-21T00:48:31;14.10;99.90
13817;DHT22;6979;52.116;5.286;2023-04-21T00:50:58;14.10;99.90
13817;DHT22;6979;52.116;5.286;2023-04-21T00:53:26;14.10;99.90
13817;DHT22;6979;52.116;5.286;2023-04-21T00:55:53;14.00;99.90
13817;DHT22;6979;52.116;5.286;2023-04-21T00:58:21;14.00;99.90
13817;DHT22;6979;52.116;5.286;2023-04-21T01:00:48;14.00;99.90
13817;DHT22;6979;52.116;5.286;2023-04-21T01:03:15;14.00;99.90
13817;DHT22;6979;52.116;5.286;2023-04-21T01:05:42;13.90;99.90
13817;DHT22;6979;52.116;5.286;2023-04-21T01:08:11;13.90;99.90
13817;DHT22;6979;52.116;5.286;2023-04-21T01:10:37;13.90;99.90
13817;DHT22;6979;52.116;5.286;2023-04-21T01:13:05;13.90;99.90
13817;DHT22;6979;52.116;5.286;2023-04-21T01:15:33;13.80;99.90
13817;DHT22;6979;52.116;5.286;2023-04-21T01:18:00;13.80;99.90
13817;DHT22;6979;52.116;5.286;2023-04-21T01:20:27;13.80;99.90
13817;DHT22;6979;52.116;5.286;2023-04-21T01:22:56;13.80;99.90
13817;DHT22;6979;52.116;5.286;2023-04-21T01:25:23;13.80;99.90
13817;DHT22;6979;52.116;5.286;2023-04-21T01:27:52;13.80;99.90
13817;DHT22;6979;52.116;5.286;2023-04-21T01:30:20;13.80;99.90
13817;DHT22;6979;52.116;5.286;2023-04-21T01:32:47;13.80;99.90
13817;DHT22;6979;52.116;5.286;2023-04-21T01:35:14;13.70;99.90
13817;DHT22;6979;52.116;5.286;2023-04-21T01:37:41;13.70;99.90
13817;DHT22;6979;52.116;5.286;2023-04-21T01:40:12;13.70;99.90
13817;DHT22;6979;52.116;5.286;2023-04-21T01:42:40;13.70;99.90
13817;DHT22;6979;52.116;5.286;2023-04-21T01:45:09;13.70;99.90
13817;DHT22;6979;52.116;5.286;2023-04-21T01:47:36;13.70;99.90
13817;DHT22;6979;52.116;5.286;2023-04-21T01:50:03;13.70;99.90
13817;DHT22;6979;52.116;5.286;2023-04-21T01:52:30;13.70;99.90
13817;DHT22;6979;52.116;5.286;2023-04-21T01:54:57;13.60;99.90
13817;DHT22;6979;52.116;5.286;2023-04-21T01:57:26;13.70;99.90
13817;DHT22;6979;52.116;5.286;2023-04-21T01:59:53;13.70;99.90
13817;DHT22;6979;52.116;5.286;2023-04-21T02:02:20;13.70;99.90
13817;DHT22;6979;52.116;5.286;2023-04-21T02:04:47;13.70;99.90
13817;DHT22;6979;52.116;5.286;2023-04-21T02:07:13;13.70;99.90
13817;DHT22;6979;52.116;5.286;2023-04-21T02:09:40;13.70;99.90
13817;DHT22;6979;52.116;5.286;2023-04-21T02:12:07;13.70;99.90
13817;DHT22;6979;52.116;5.286;2023-04-21T02:14:36;13.70;99.90
13817;DHT22;6979;52.116;5.286;2023-04-21T02:17:05;13.70;99.90
13817;DHT22;6979;52.116;5.286;2023-04-21T02:19:32;13.70;99.90
13817;DHT22;6979;52.116;5.286;2023-04-21T02:21:59;13.70;99.90
13817;DHT22;6979;52.116;5.286;2023-04-21T02:24:26;13.60;99.90
13817;DHT22;6979;52.116;5.286;2023-04-21T02:26:53;13.60;99.90
13817;DHT22;6979;52.116;5.286;2023-04-21T02:29:19;13.60;99.90
13817;DHT22;6979;52.116;5.286;2023-04-21T02:31:48;13.60;99.90
13817;DHT22;6979;52.116;5.286;2023-04-21T02:34:15;13.60;99.90
13817;DHT22;6979;52.116;5.286;2023-04-21T02:36:42;13.60;99.90
13817;DHT22;6979;52.116;5.286;2023-04-21T02:39:09;13.60;99.90
13817;DHT22;6979;52.116;5.286;2023-04-21T02:41:38;13.60;99.90
13817;DHT22;6979;52.116;5.286;2023-04-21T02:44:05;13.60;99.90
13817;DHT22;6979;52.116;5.286;2023-04-21T02:46:32;13.60;99.90
13817;DHT22;6979;52.116;5.286;2023-04-21T02:49:00;13.60;99.90
13817;DHT22;6979;52.116;5.286;2023-04-21T02:51:27;13.60;99.90
13817;DHT22;6979;52.116;5.286;2023-04-21T02:53:54;13.60;99.90
13817;DHT22;6979;52.116;5.286;2023-04-21T02:56:21;13.60;99.90
13817;DHT22;6979;52.116;5.286;2023-04-21T02:58:48;13.60;99.90
13817;DHT22;6979;52.116;5.286;2023-04-21T03:01:15;13.50;99.90
13817;DHT22;6979;52.116;5.286;2023-04-21T03:03:41;13.50;99.90
13817;DHT22;6979;52.116;5.286;2023-04-21T03:06:11;13.50;99.90
13817;DHT22;6979;52.116;5.286;2023-04-21T03:08:38;13.50;99.90
13817;DHT22;6979;52.116;5.286;2023-04-21T03:11:05;13.50;99.90
13817;DHT22;6979;52.116;5.286;2023-04-21T03:13:32;13.50;99.90
13817;DHT22;6979;52.116;5.286;2023-04-21T03:15:59;13.50;99.90
13817;DHT22;6979;52.116;5.286;2023-04-21T03:18:26;13.50;99.90
13817;DHT22;6979;52.116;5.286;2023-04-21T03:20:58;13.50;99.90
13817;DHT22;6979;52.116;5.286;2023-04-21T03:23:27;13.50;99.90
13817;DHT22;6979;52.116;5.286;2023-04-21T03:25:54;13.50;99.90
13817;DHT22;6979;52.116;5.286;2023-04-21T03:28:20;13.50;99.90
13817;DHT22;6979;52.116;5.286;2023-04-21T03:30:47;13.50;99.90
13817;DHT22;6979;52.116;5.286;2023-04-21T03:33:14;13.50;99.90
13817;DHT22;6979;52.116;5.286;2023-04-21T03:35:41;13.50;99.90
13817;DHT22;6979;52.116;5.286;2023-04-21T03:38:09;13.50;99.90
13817;DHT22;6979;52.116;5.286;2023-04-21T03:40:39;13.50;99.90
13817;DHT22;6979;52.116;5.286;2023-04-21T03:43:06;13.50;99.90
13817;DHT22;6979;52.116;5.286;2023-04-21T03:45:34;13.50;99.90
13817;DHT22;6979;52.116;5.286;2023-04-21T03:48:10;13.50;99.90
13817;DHT22;6979;52.116;5.286;2023-04-21T03:50:37;13.40;99.90
13817;DHT22;6979;52.116;5.286;2023-04-21T03:53:05;13.40;99.90
13817;DHT22;6979;52.116;5.286;2023-04-21T03:55:32;13.50;99.90
13817;DHT22;6979;52.116;5.286;2023-04-21T03:58:00;13.50;99.90
13817;DHT22;6979;52.116;5.286;2023-04-21T04:00:27;13.40;99.90
13817;DHT22;6979;52.116;5.286;2023-04-21T04:02:54;13.50;99.90
13817;DHT22;6979;52.116;5.286;2023-04-21T04:05:21;13.50;99.90
13817;DHT22;6979;52.116;5.286;2023-04-21T04:07:47;13.50;99.90
13817;DHT22;6979;52.116;5.286;2023-04-21T04:10:14;13.40;99.90
13817;DHT22;6979;52.116;5.286;2023-04-21T04:12:43;13.50;99.90
13817;DHT22;6979;52.116;5.286;2023-04-21T04:15:11;13.40;99.90
13817;DHT22;6979;52.116;5.286;2023-04-21T04:17:39;13.40;99.90
13817;DHT22;6979;52.116;5.286;2023-04-21T04:20:07;13.40;99.90
13817;DHT22;6979;52.116;5.286;2023-04-21T04:22:34;13.40;99.90
13817;DHT22;6979;52.116;5.286;2023-04-21T04:25:02;13.40;99.90
13817;DHT22;6979;52.116;5.286;2023-04-21T04:27:30;13.40;99.90
13817;DHT22;6979;52.116;5.286;2023-04-21T04:29:57;13.40;99.90
13817;DHT22;6979;52.116;5.286;2023-04-21T04:32:26;13.40;99.90
13817;DHT22;6979;52.116;5.286;2023-04-21T04:34:53;13.40;99.90
13817;DHT22;6979;52.116;5.286;2023-04-21T04:37:21;13.40;99.90
13817;DHT22;6979;52.116;5.286;2023-04-21T04:39:48;13.40;99.90
13817;DHT22;6979;52.116;5.286;2023-04-21T04:42:18;13.40;99.90
13817;DHT22;6979;52.116;5.286;2023-04-21T04:44:47;13.40;99.90
13817;DHT22;6979;52.116;5.286;2023-04-21T04:47:14;13.40;99.90
13817;DHT22;6979;52.116;5.286;2023-04-21T04:49:42;13.40;99.90
13817;DHT22;6979;52.116;5.286;2023-04-21T04:52:09;13.40;99.90
13817;DHT22;6979;52.116;5.286;2023-04-21T04:54:36;13.40;99.90
13817;DHT22;6979;52.116;5.286;2023-04-21T04:57:03;13.40;99.90
13817;DHT22;6979;52.116;5.286;2023-04-21T04:59:29;13.40;99.90
13817;DHT22;6979;52.116;5.286;2023-04-21T05:01:57;13.50;99.90
13817;DHT22;6979;52.116;5.286;2023-04-21T05:04:24;13.50;99.90
13817;DHT22;6979;52.116;5.286;2023-04-21T05:06:52;13.50;99.90
13817;DHT22;6979;52.116;5.286;2023-04-21T05:09:22;13.50;99.90
13817;DHT22;6979;52.116;5.286;2023-04-21T05:11:49;13.50;99.90
13817;DHT22;6979;52.116;5.286;2023-04-21T05:14:19;13.50;99.90
13817;DHT22;6979;52.116;5.286;2023-04-21T05:16:46;13.50;99.90
13817;DHT22;6979;52.116;5.286;2023-04-21T05:19:13;13.50;99.90
13817;DHT22;6979;52.116;5.286;2023-04-21T05:21:39;13.50;99.90
13817;DHT22;6979;52.116;5.286;2023-04-21T05:24:08;13.50;99.90
13817;DHT22;6979;52.116;5.286;2023-04-21T05:26:34;13.50;99.90
13817;DHT22;6979;52.116;5.286;2023-04-21T05:29:03;13.50;99.90
13817;DHT22;6979;52.116;5.286;2023-04-21T05:31:30;13.50;99.90
13817;DHT22;6979;52.116;5.286;2023-04-21T05:33:59;13.50;99.90
13817;DHT22;6979;52.116;5.286;2023-04-21T05:36:26;13.50;99.90
13817;DHT22;6979;52.116;5.286;2023-04-21T05:38:57;13.50;99.90
13817;DHT22;6979;52.116;5.286;2023-04-21T05:41:25;13.50;99.90
13817;DHT22;6979;52.116;5.286;2023-04-21T05:43:52;13.50;99.90
13817;DHT22;6979;52.116;5.286;2023-04-21T05:46:19;13.50;99.90
13817;DHT22;6979;52.116;5.286;2023-04-21T05:48:46;13.60;99.90
13817;DHT22;6979;52.116;5.286;2023-04-21T05:51:13;13.60;99.90
13817;DHT22;6979;52.116;5.286;2023-04-21T05:53:44;13.60;99.90
13817;DHT22;6979;52.116;5.286;2023-04-21T05:56:12;13.60;99.90
13817;DHT22;6979;52.116;5.286;2023-04-21T05:58:40;13.70;99.90
13817;DHT22;6979;52.116;5.286;2023-04-21T06:01:07;13.70;99.90
13817;DHT22;6979;52.116;5.286;2023-04-21T06:03:34;13.70;99.90
13817;DHT22;6979;52.116;5.286;2023-04-21T06:06:03;13.70;99.90
13817;DHT22;6979;52.116;5.286;2023-04-21T06:08:30;13.70;99.90
13817;DHT22;6979;52.116;5.286;2023-04-21T06:10:57;13.80;99.90
13817;DHT22;6979;52.116;5.286;2023-04-21T06:13:24;13.80;99.90
13817;DHT22;6979;52.116;5.286;2023-04-21T06:15:53;13.80;99.90
13817;DHT22;6979;52.116;5.286;2023-04-21T06:18:20;13.80;99.90
13817;DHT22;6979;52.116;5.286;2023-04-21T06:20:52;13.80;99.90
13817;DHT22;6979;52.116;5.286;2023-04-21T06:23:20;13.90;99.90
13817;DHT22;6979;52.116;5.286;2023-04-21T06:25:57;13.90;99.90
13817;DHT22;6979;52.116;5.286;2023-04-21T06:28:24;13.90;99.90
13817;DHT22;6979;52.116;5.286;2023-04-21T06:30:52;14.00;99.90
13817;DHT22;6979;52.116;5.286;2023-04-21T06:33:20;14.00;99.90
13817;DHT22;6979;52.116;5.286;2023-04-21T06:35:47;14.00;99.90
13817;DHT22;6979;52.116;5.286;2023-04-21T06:38:14;14.10;99.90
13817;DHT22;6979;52.116;5.286;2023-04-21T06:40:41;14.10;99.90
13817;DHT22;6979;52.116;5.286;2023-04-21T06:43:10;14.10;99.90
13817;DHT22;6979;52.116;5.286;2023-04-21T06:45:37;14.20;99.90
13817;DHT22;6979;52.116;5.286;2023-04-21T06:48:06;14.20;99.90
13817;DHT22;6979;52.116;5.286;2023-04-21T06:50:33;14.30;99.90
13817;DHT22;6979;52.116;5.286;2023-04-21T06:53:00;14.30;99.90
13817;DHT22;6979;52.116;5.286;2023-04-21T06:55:27;14.40;99.90
13817;DHT22;6979;52.116;5.286;2023-04-21T06:57:54;14.40;99.90
13817;DHT22;6979;52.116;5.286;2023-04-21T07:00:21;14.40;99.90
13817;DHT22;6979;52.116;5.286;2023-04-21T07:02:48;14.50;99.90
13817;DHT22;6979;52.116;5.286;2023-04-21T07:05:17;14.50;99.90
13817;DHT22;6979;52.116;5.286;2023-04-21T07:07:44;14.60;99.90
13817;DHT22;6979;52.116;5.286;2023-04-21T07:10:11;14.60;99.90
13817;DHT22;6979;52.116;5.286;2023-04-21T07:12:43;14.70;99.90
13817;DHT22;6979;52.116;5.286;2023-04-21T07:15:10;14.70;99.90
13817;DHT22;6979;52.116;5.286;2023-04-21T07:17:38;14.80;99.90
13817;DHT22;6979;52.116;5.286;2023-04-21T07:20:06;14.90;99.90
13817;DHT22;6979;52.116;5.286;2023-04-21T07:22:34;14.90;99.90
13817;DHT22;6979;52.116;5.286;2023-04-21T07:25:01;15.00;99.90
13817;DHT22;6979;52.116;5.286;2023-04-21T07:27:31;15.10;99.90
13817;DHT22;6979;52.116;5.286;2023-04-21T07:29:58;15.10;99.90
13817;DHT22;6979;52.116;5.286;2023-04-21T07:32:25;15.10;99.90
13817;DHT22;6979;52.116;5.286;2023-04-21T07:34:52;15.20;99.90
13817;DHT22;6979;52.116;5.286;2023-04-21T07:37:19;15.20;99.90
13817;DHT22;6979;52.116;5.286;2023-04-21T07:39:48;15.20;99.90
13817;DHT22;6979;52.116;5.286;2023-04-21T07:42:15;15.30;99.90
13817;DHT22;6979;52.116;5.286;2023-04-21T07:44:42;15.30;99.90
13817;DHT22;6979;52.116;5.286;2023-04-21T07:47:09;15.40;99.90
13817;DHT22;6979;52.116;5.286;2023-04-21T07:49:35;15.40;99.90
13817;DHT22;6979;52.116;5.286;2023-04-21T07:52:02;15.50;99.90
13817;DHT22;6979;52.116;5.286;2023-04-21T07:54:32;15.50;99.90
13817;DHT22;6979;52.116;5.286;2023-04-21T07:57:00;15.60;99.90
13817;DHT22;6979;52.116;5.286;2023-04-21T07:59:27;15.60;99.90
13817;DHT22;6979;52.116;5.286;2023-04-21T08:01:54;15.70;99.90
13817;DHT22;6979;52.116;5.286;2023-04-21T08:04:21;15.80;99.90
13817;DHT22;6979;52.116;5.286;2023-04-21T08:06:48;15.90;99.90
13817;DHT22;6979;52.116;5.286;2023-04-21T08:09:14;15.90;99.90
13817;DHT22;6979;52.116;5.286;2023-04-21T08:11:41;16.00;99.90
13817;DHT22;6979;52.116;5.286;2023-04-21T08:14:13;16.00;99.90
13817;DHT22;6979;52.116;5.286;2023-04-21T08:16:40;16.00;99.90
13817;DHT22;6979;52.116;5.286;2023-04-21T08:19:08;16.00;99.90
13817;DHT22;6979;52.116;5.286;2023-04-21T08:21:35;16.10;99.90
13817;DHT22;6979;52.116;5.286;2023-04-21T08:24:04;16.10;99.90
13817;DHT22;6979;52.116;5.286;2023-04-21T08:26:31;16.20;99.90
13817;DHT22;6979;52.116;5.286;2023-04-21T08:28:58;16.30;99.90
13817;DHT22;6979;52.116;5.286;2023-04-21T08:31:27;16.40;99.90
13817;DHT22;6979;52.116;5.286;2023-04-21T08:33:54;16.40;99.90
13817;DHT22;6979;52.116;5.286;2023-04-21T08:36:21;16.50;99.90
13817;DHT22;6979;52.116;5.286;2023-04-21T08:38:47;16.50;99.90
13817;DHT22;6979;52.116;5.286;2023-04-21T08:41:14;16.60;99.90
13817;DHT22;6979;52.116;5.286;2023-04-21T08:43:41;16.70;99.90
13817;DHT22;6979;52.116;5.286;2023-04-21T08:46:08;16.70;99.90
13817;DHT22;6979;52.116;5.286;2023-04-21T08:48:37;16.80;99.90
13817;DHT22;6979;52.116;5.286;2023-04-21T08:51:07;16.80;99.90
13817;DHT22;6979;52.116;5.286;2023-04-21T08:53:35;16.90;99.90
13817;DHT22;6979;52.116;5.286;2023-04-21T08:56:03;17.00;99.90
13817;DHT22;6979;52.116;5.286;2023-04-21T08:58:30;17.10;99.90
13817;DHT22;6979;52.116;5.286;2023-04-21T09:00:56;17.20;99.90
13817;DHT22;6979;52.116;5.286;2023-04-21T09:03:25;17.30;99.90
13817;DHT22;6979;52.116;5.286;2023-04-21T09:06:04;17.40;99.90
13817;DHT22;6979;52.116;5.286;2023-04-21T09:08:32;17.50;99.90
13817;DHT22;6979;52.116;5.286;2023-04-21T09:11:00;17.60;99.90
13817;DHT22;6979;52.116;5.286;2023-04-21T09:13:31;17.70;99.90
13817;DHT22;6979;52.116;5.286;2023-04-21T09:15:59;17.90;99.90
13817;DHT22;6979;52.116;5.286;2023-04-21T09:18:28;18.20;99.90
13817;DHT22;6979;52.116;5.286;2023-04-21T09:21:08;18.50;99.90
13817;DHT22;6979;52.116;5.286;2023-04-21T09:23:40;18.80;99.90
13817;DHT22;6979;52.116;5.286;2023-04-21T09:26:07;19.00;99.90
13817;DHT22;6979;52.116;5.286;2023-04-21T09:28:34;19.10;99.90
13817;DHT22;6979;52.116;5.286;2023-04-21T09:31:01;19.20;99.90
13817;DHT22;6979;52.116;5.286;2023-04-21T09:33:27;19.30;99.90
13817;DHT22;6979;52.116;5.286;2023-04-21T09:36:00;19.30;99.90
13817;DHT22;6979;52.116;5.286;2023-04-21T09:38:28;19.40;99.90
13817;DHT22;6979;52.116;5.286;2023-04-21T09:40:56;19.30;99.90
13817;DHT22;6979;52.116;5.286;2023-04-21T09:43:23;19.30;99.90
13817;DHT22;6979;52.116;5.286;2023-04-21T09:45:50;19.20;99.90
13817;DHT22;6979;52.116;5.286;2023-04-21T09:48:18;19.30;99.90
13817;DHT22;6979;52.116;5.286;2023-04-21T09:50:46;19.40;99.90
13817;DHT22;6979;52.116;5.286;2023-04-21T09:53:15;19.40;99.90
13817;DHT22;6979;52.116;5.286;2023-04-21T09:55:45;19.60;99.90
13817;DHT22;6979;52.116;5.286;2023-04-21T09:58:15;19.60;99.90
13817;DHT22;6979;52.116;5.286;2023-04-21T10:00:46;19.70;99.90
13817;DHT22;6979;52.116;5.286;2023-04-21T10:03:13;19.70;99.90
13817;DHT22;6979;52.116;5.286;2023-04-21T10:05:43;19.80;99.90
13817;DHT22;6979;52.116;5.286;2023-04-21T10:08:10;19.90;99.90
13817;DHT22;6979;52.116;5.286;2023-04-21T10:10:38;20.00;99.90
13817;DHT22;6979;52.116;5.286;2023-04-21T10:13:06;20.10;99.90
13817;DHT22;6979;52.116;5.286;2023-04-21T10:15:39;20.20;99.90
13817;DHT22;6979;52.116;5.286;2023-04-21T10:18:15;20.40;99.90
13817;DHT22;6979;52.116;5.286;2023-04-21T10:20:53;20.50;99.90
13817;DHT22;6979;52.116;5.286;2023-04-21T10:23:28;20.60;99.90
13817;DHT22;6979;52.116;5.286;2023-04-21T10:26:01;20.80;99.90
13817;DHT22;6979;52.116;5.286;2023-04-21T10:28:46;20.90;99.90
13817;DHT22;6979;52.116;5.286;2023-04-21T10:31:18;20.90;99.90
13817;DHT22;6979;52.116;5.286;2023-04-21T10:34:14;20.90;99.90
13817;DHT22;6979;52.116;5.286;2023-04-21T10:37:09;20.80;99.90
13817;DHT22;6979;52.116;5.286;2023-04-21T10:39:43;20.70;99.90
13817;DHT22;6979;52.116;5.286;2023-04-21T10:42:24;20.60;99.90
13817;DHT22;6979;52.116;5.286;2023-04-21T10:45:06;20.50;99.90
13817;DHT22;6979;52.116;5.286;2023-04-21T10:47:43;20.40;99.90
13817;DHT22;6979;52.116;5.286;2023-04-21T10:50:16;20.30;99.90
13817;DHT22;6979;52.116;5.286;2023-04-21T10:52:44;20.20;99.90
13817;DHT22;6979;52.116;5.286;2023-04-21T10:55:11;20.10;99.90
13817;DHT22;6979;52.116;5.286;2023-04-21T10:57:42;20.00;99.90
13817;DHT22;6979;52.116;5.286;2023-04-21T11:00:14;19.90;99.90
13817;DHT22;6979;52.116;5.286;2023-04-21T11:02:42;19.90;99.90
13817;DHT22;6979;52.116;5.286;2023-04-21T11:05:10;19.90;99.90
13817;DHT22;6979;52.116;5.286;2023-04-21T11:07:37;20.00;99.90
13817;DHT22;6979;52.116;5.286;2023-04-21T11:10:05;20.10;99.90
13817;DHT22;6979;52.116;5.286;2023-04-21T11:12:33;20.20;99.90
13817;DHT22;6979;52.116;5.286;2023-04-21T11:15:03;20.20;99.90
13817;DHT22;6979;52.116;5.286;2023-04-21T11:17:33;20.20;99.90
13817;DHT22;6979;52.116;5.286;2023-04-21T11:20:01;20.20;99.90
13817;DHT22;6979;52.116;5.286;2023-04-21T11:22:31;20.20;99.90
13817;DHT22;6979;52.116;5.286;2023-04-21T11:24:58;20.20;99.90
13817;DHT22;6979;52.116;5.286;2023-04-21T11:27:27;20.10;99.90
13817;DHT22;6979;52.116;5.286;2023-04-21T11:29:54;20.20;99.90
13817;DHT22;6979;52.116;5.286;2023-04-21T11:32:22;20.20;99.90
13817;DHT22;6979;52.116;5.286;2023-04-21T11:34:50;20.20;99.90
13817;DHT22;6979;52.116;5.286;2023-04-21T11:37:23;20.30;99.90
13817;DHT22;6979;52.116;5.286;2023-04-21T11:39:56;20.30;99.90
13817;DHT22;6979;52.116;5.286;2023-04-21T11:42:23;20.40;99.90
13817;DHT22;6979;52.116;5.286;2023-04-21T11:44:52;20.60;99.90
13817;DHT22;6979;52.116;5.286;2023-04-21T11:47:21;20.70;99.90
13817;DHT22;6979;52.116;5.286;2023-04-21T11:49:51;20.80;99.90
13817;DHT22;6979;52.116;5.286;2023-04-21T11:52:20;21.00;99.90
13817;DHT22;6979;52.116;5.286;2023-04-21T11:54:53;21.20;99.90
13817;DHT22;6979;52.116;5.286;2023-04-21T11:57:21;21.30;99.90
13817;DHT22;6979;52.116;5.286;2023-04-21T11:59:48;21.40;99.90
13817;DHT22;6979;52.116;5.286;2023-04-21T12:02:21;21.50;99.90
13817;DHT22;6979;52.116;5.286;2023-04-21T12:05:01;21.60;99.90
13817;DHT22;6979;52.116;5.286;2023-04-21T12:07:29;21.70;99.90
13817;DHT22;6979;52.116;5.286;2023-04-21T12:09:57;21.70;99.90
13817;DHT22;6979;52.116;5.286;2023-04-21T12:12:24;21.70;99.90
13817;DHT22;6979;52.116;5.286;2023-04-21T12:14:51;21.70;99.90
13817;DHT22;6979;52.116;5.286;2023-04-21T12:17:18;21.70;99.90
13817;DHT22;6979;52.116;5.286;2023-04-21T12:19:46;21.70;99.90
13817;DHT22;6979;52.116;5.286;2023-04-21T12:22:15;21.70;99.90
13817;DHT22;6979;52.116;5.286;2023-04-21T12:24:43;21.80;99.90
13817;DHT22;6979;52.116;5.286;2023-04-21T12:27:10;21.70;99.90
13817;DHT22;6979;52.116;5.286;2023-04-21T12:29:38;21.70;99.90
13817;DHT22;6979;52.116;5.286;2023-04-21T12:32:06;21.70;99.90
13817;DHT22;6979;52.116;5.286;2023-04-21T12:34:33;21.70;99.90
13817;DHT22;6979;52.116;5.286;2023-04-21T12:36:59;21.70;99.90
13817;DHT22;6979;52.116;5.286;2023-04-21T12:39:30;21.80;99.90
13817;DHT22;6979;52.116;5.286;2023-04-21T12:41:57;21.80;99.90
13817;DHT22;6979;52.116;5.286;2023-04-21T12:44:24;21.80;99.90
13817;DHT22;6979;52.116;5.286;2023-04-21T12:46:52;21.80;99.90
13817;DHT22;6979;52.116;5.286;2023-04-21T12:49:19;21.90;99.90
13817;DHT22;6979;52.116;5.286;2023-04-21T12:51:46;22.00;99.90
13817;DHT22;6979;52.116;5.286;2023-04-21T12:54:13;22.00;99.90
13817;DHT22;6979;52.116;5.286;2023-04-21T12:56:42;22.10;99.90
13817;DHT22;6979;52.116;5.286;2023-04-21T12:59:09;22.20;99.90
13817;DHT22;6979;52.116;5.286;2023-04-21T13:01:39;22.20;99.90
13817;DHT22;6979;52.116;5.286;2023-04-21T13:04:06;22.20;99.90
13817;DHT22;6979;52.116;5.286;2023-04-21T13:06:37;22.20;99.90
13817;DHT22;6979;52.116;5.286;2023-04-21T13:09:04;22.10;99.90
13817;DHT22;6979;52.116;5.286;2023-04-21T13:11:32;22.00;99.90
13817;DHT22;6979;52.116;5.286;2023-04-21T13:14:00;21.90;99.90
13817;DHT22;6979;52.116;5.286;2023-04-21T13:16:28;21.80;99.90
13817;DHT22;6979;52.116;5.286;2023-04-21T13:18:58;21.70;99.90
13817;DHT22;6979;52.116;5.286;2023-04-21T13:21:25;21.70;99.90
13817;DHT22;6979;52.116;5.286;2023-04-21T13:23:52;21.60;99.90
13817;DHT22;6979;52.116;5.286;2023-04-21T13:26:20;21.60;99.90
13817;DHT22;6979;52.116;5.286;2023-04-21T13:28:47;21.60;99.90
13817;DHT22;6979;52.116;5.286;2023-04-21T13:31:15;21.60;99.90
13817;DHT22;6979;52.116;5.286;2023-04-21T13:33:42;21.60;99.90
13817;DHT22;6979;52.116;5.286;2023-04-21T13:36:09;21.70;99.90
13817;DHT22;6979;52.116;5.286;2023-04-21T13:38:37;21.70;99.90
13817;DHT22;6979;52.116;5.286;2023-04-21T13:41:05;21.90;99.90
13817;DHT22;6979;52.116;5.286;2023-04-21T13:43:31;22.10;99.90
13817;DHT22;6979;52.116;5.286;2023-04-21T13:45:58;22.30;99.90
13817;DHT22;6979;52.116;5.286;2023-04-21T13:48:26;22.50;99.90
13817;DHT22;6979;52.116;5.286;2023-04-21T13:50:54;22.70;99.90
13817;DHT22;6979;52.116;5.286;2023-04-21T13:53:21;22.80;99.90
13817;DHT22;6979;52.116;5.286;2023-04-21T13:55:48;22.80;99.90
13817;DHT22;6979;52.116;5.286;2023-04-21T13:58:15;22.80;99.90
13817;DHT22;6979;52.116;5.286;2023-04-21T14:00:42;22.90;99.90
13817;DHT22;6979;52.116;5.286;2023-04-21T14:03:09;22.90;99.90
13817;DHT22;6979;52.116;5.286;2023-04-21T14:05:38;23.00;99.90
13817;DHT22;6979;52.116;5.286;2023-04-21T14:08:05;23.20;99.90
13817;DHT22;6979;52.116;5.286;2023-04-21T14:10:32;23.40;99.90
13817;DHT22;6979;52.116;5.286;2023-04-21T14:12:58;23.70;99.90
13817;DHT22;6979;52.116;5.286;2023-04-21T14:15:25;23.90;99.90
13817;DHT22;6979;52.116;5.286;2023-04-21T14:17:52;24.20;99.90
13817;DHT22;6979;52.116;5.286;2023-04-21T14:20:23;24.40;99.90
13817;DHT22;6979;52.116;5.286;2023-04-21T14:22:51;24.60;99.90
13817;DHT22;6979;52.116;5.286;2023-04-21T14:25:18;24.70;99.80
13817;DHT22;6979;52.116;5.286;2023-04-21T14:27:45;24.80;99.00
13817;DHT22;6979;52.116;5.286;2023-04-21T14:30:13;24.70;98.90
13817;DHT22;6979;52.116;5.286;2023-04-21T14:32:40;24.70;98.60
13817;DHT22;6979;52.116;5.286;2023-04-21T14:35:10;24.60;98.70
13817;DHT22;6979;52.116;5.286;2023-04-21T14:37:37;24.60;98.70
13817;DHT22;6979;52.116;5.286;2023-04-21T14:40:06;24.50;98.60
13817;DHT22;6979;52.116;5.286;2023-04-21T14:42:34;24.40;98.00
13817;DHT22;6979;52.116;5.286;2023-04-21T14:45:00;24.30;98.10
13817;DHT22;6979;52.116;5.286;2023-04-21T14:47:27;24.20;97.70
13817;DHT22;6979;52.116;5.286;2023-04-21T14:49:55;24.00;97.50
13817;DHT22;6979;52.116;5.286;2023-04-21T14:52:22;23.90;97.60
13817;DHT22;6979;52.116;5.286;2023-04-21T14:54:51;23.80;97.60
13817;DHT22;6979;52.116;5.286;2023-04-21T14:57:19;23.60;97.60
13817;DHT22;6979;52.116;5.286;2023-04-21T14:59:48;23.40;97.40
13817;DHT22;6979;52.116;5.286;2023-04-21T15:02:15;23.30;97.60
13817;DHT22;6979;52.116;5.286;2023-04-21T15:04:42;23.10;97.60
13817;DHT22;6979;52.116;5.286;2023-04-21T15:07:08;23.00;97.60
13817;DHT22;6979;52.116;5.286;2023-04-21T15:09:35;22.90;97.40
13817;DHT22;6979;52.116;5.286;2023-04-21T15:12:03;22.80;97.80
13817;DHT22;6979;52.116;5.286;2023-04-21T15:14:32;22.80;98.00
13817;DHT22;6979;52.116;5.286;2023-04-21T15:16:59;22.80;98.00
13817;DHT22;6979;52.116;5.286;2023-04-21T15:19:26;22.90;97.80
13817;DHT22;6979;52.116;5.286;2023-04-21T15:21:52;23.00;96.80
13817;DHT22;6979;52.116;5.286;2023-04-21T15:24:19;23.00;97.10
13817;DHT22;6979;52.116;5.286;2023-04-21T15:26:47;23.10;98.00
13817;DHT22;6979;52.116;5.286;2023-04-21T15:29:14;23.20;97.80
13817;DHT22;6979;52.116;5.286;2023-04-21T15:31:42;23.30;97.80
13817;DHT22;6979;52.116;5.286;2023-04-21T15:34:08;23.40;97.50
13817;DHT22;6979;52.116;5.286;2023-04-21T15:36:35;23.60;97.30
13817;DHT22;6979;52.116;5.286;2023-04-21T15:39:02;23.70;97.30
13817;DHT22;6979;52.116;5.286;2023-04-21T15:41:29;23.70;96.90
13817;DHT22;6979;52.116;5.286;2023-04-21T15:43:56;23.80;97.00
13817;DHT22;6979;52.116;5.286;2023-04-21T15:46:23;23.80;96.80
13817;DHT22;6979;52.116;5.286;2023-04-21T15:48:51;23.80;96.50
13817;DHT22;6979;52.116;5.286;2023-04-21T15:51:18;23.80;96.30